This is the latest recevied weather packets stored in our database for station/object LIPZ. If no packets are shown the sender has not sent any weather packets the latest 10 day(s).
| Time | Temp. | Humidity | Pressure | Rain* | Wind** | Luminosity | Snow |
|---|---|---|---|---|---|---|---|
| 1778157004 | 20° C | 68% | 1012 hPa | - | - | - | - |
| 1778155204 | 20° C | 68% | 1013 hPa | - | - | - | - |
| 1778154304 | 20° C | 72% | 1013 hPa | - | - | - | - |
| 1778153404 | 20° C | 72% | 1013 hPa | - | - | - | - |
| 1778150703 | 18.89° C | 77% | 1013 hPa | - | - | - | - |
| 1778149805 | 18.89° C | 77% | 1013 hPa | - | - | - | - |
| 1778148005 | 17.22° C | 88% | 1013 hPa | - | - | - | - |
| 1778147104 | 17.22° C | 88% | 1013 hPa | - | - | - | - |
| 1778146204 | 17.22° C | 88% | 1013 hPa | - | - | - | - |
| 1778144404 | 17.22° C | 88% | 1013 hPa | - | - | - | - |
| 1778142603 | 17.22° C | 88% | 1013 hPa | - | - | - | - |
| 1778141704 | 17.22° C | 88% | 1012 hPa | - | - | - | - |
| 1778140804 | 17.22° C | 88% | 1012 hPa | - | - | - | - |
| 1778138103 | 15° C | 100% | 1012 hPa | - | - | - | - |
| 1778137205 | 15° C | 100% | 1012 hPa | - | - | - | - |
| 1778136304 | 13.89° C | 100% | 1012 hPa | - | - | - | - |
| 1778133604 | 13.89° C | 100% | 1012 hPa | - | - | - | - |
| 1778130904 | 13.89° C | 100% | 1011 hPa | - | - | - | - |
| 1778130005 | 13.89° C | 100% | 1011 hPa | - | - | - | - |
| 1778129105 | 13.89° C | 100% | 1011 hPa | - | - | - | - |
| 1778122804 | 13.89° C | 100% | 1011 hPa | - | - | - | - |
| 1778121005 | 12.78° C | 100% | 1011 hPa | - | - | - | - |
| 1778120105 | 12.78° C | 100% | 1011 hPa | - | - | - | - |
| 1778119204 | 12.78° C | 100% | 1011 hPa | - | - | - | - |
| 1778118304 | 13.89° C | 93% | 1011 hPa | - | - | - | - |
* Rain since midnight (hover to see other rain measurements)
** Current wind speed in m/s (hover to see current wind gust speed)